Wednesday, May 04, 2016
11:43 UTC
  |  Log In   |  Register Free
Airport Search:

Mackall Aaf Airport
(KHFF)

Mackall Aaf Airport Diagram
No Airport Diagram Available

FAA data valid effective Mar 31 2016 - May 26 2016 (unless otherwise noted).

 
 
 
 
 
 
 
 
 
 
 
 
 
 
Summary: Mackall Aaf (HFF)

Weather Summary


METAR for KHFF is not available. Closest METAR is for KSOP
KHFF  (most recent observation was updatred at 41:05 UTC)
041056Z AUTO 31003KT 10SM FEW120 15/13 A2971 RMK AO2 LTG DSNT E SLP074 T01470130 $

KSOP  (13.2 nm SW)   (most recent observation was updated at 41:05 UTC)
041056Z AUTO 32003KT 10SM CLR 13/12 A2972 RMK AO2 SLP078 T01330122

KMEB  (16.0 nm NW)   (most recent observation was updated at 41:05 UTC)
041052Z AUTO 03004KT 5SM -RA BKN075 OVC090 17/13 A2971 RMK AO2 RAB44 SLP059 P0001 T01670133

TAF for KHFF is not available.
KPOB  (25.1 nm SW)   (most recent observation was updatred at 40:90 UTC)
040900Z 0409/0515 VRB06KT 9999 SCT015 QNH2965INS BECMG 0413/0414 27009KT 9999 SCT040 QNH2967INS BECMG 0416/0417 27010G15KT 9999 SCT060 QNH2961INS BECMG 0423/0424 VRB06KT 9999 SCT040 QNH2965INS TX25/0420Z TN13/0409Z


KFBG  (28.1 nm SW)   (most recent observation was updatred at 40:90 UTC)
040900Z 0409/0515 VRB06KT 9999 SCT015 QNH2965INS BECMG 0413/0414 27009KT 9999 SCT040 QNH2967INS BECMG 0416/0417 27010G15KT 9999 SCT060 QNH2961INS BECMG 0423/0424 VRB06KT 9999 SCT040 QNH2965INS TX25/0420Z TN13/0409Z


KFAY  (30.5 nm NW)   (most recent observation was updatred at 41:12 UTC)
041128Z 0412/0512 35004KT P6SM VCSH BKN080 TEMPO 0412/0413 4SM -SHRA SCT050 BKN080 FM041300 34005KT P6SM VCSH SCT050 BKN080
GlobalAir.com is loading additional information.
 Current Weather at HFF
59.0 F° (15.2 C°)
Mostly Cloudy
West winds at 2.3 mph
Pressure:
29.70 in
Humidity:
91%
Wind:
West at 2.3 MPH (2 KT)
Dew Point:
56.8 F° (13.8 C°)
Visibility:
10.00 mi
HFF NOAA Radar

Runway Summary

ID Dimensions Surface Instrument Approaches
04/22 150 ft x 4996 ft Asphalt NDB OR GPS RWY 11
NDB OR GPS RWY 11
16/34 150 ft x 4916 ft Bituminous Concrete NDB OR GPS RWY 11
NDB OR GPS RWY 11
11/29 150 ft x 4794 ft Bituminous Concrete NDB OR GPS RWY 11
NDB OR GPS RWY 11
NDB OR GPS RWY 11
NDB OR GPS RWY 11

Communications Summary


CTAFN/A
UNICOMN/A
ATIS141.4
MACKALL GROUND128.35 [1310-0500Z++MON-SAT, EXC FED HOL.]
MACKALL TOWER121.0 [1310-0500Z++MON-SAT, EXC FED HOL.]
FAYETTEVILLE APPROACH127.8
FAYETTEVILLE DEPARTURE127.8
CLEARANCE DELIVERYN/A

Terminal Procedures Summary


Approaches

Closest Alternate Airports with Instrument Procedures

KSOP - Moore County - 15.2 nm NE from HFF

K5W4 - P K Airpark - 17.4 nm SE from HFF

K45J - Richmond County - 17.9 nm SW from HFF

KMEB - Laurinburg-Maxton - 18.5 nm SE from HFF

KBBP - Marlboro County Jetport - H.E. Avent Field - 31.7 nm SW from HFF

KAFP - Anson County - 32.8 nm SW from HFF

KCQW - Cheraw Municipal/Lynch Bellinger Field - 34.4 nm SW from HFF

KFAY - Fayetteville Regional/Grannis Field - 35.1 nm SE from HFF

KLBT - Lumberton Municipal - 38.6 nm SE from HFF

KDLC - Dillon County - 41.3 nm SE from HFF

Find All Airport Services Find A Hotel Find A Rental Car Find A Golf Course Find A Restaurant $100 Hamburger



FBO's on the Field
FBO Company Facility Photos Services Transportation Aviation Fuel Prices: Prices include tax
Catering Weather Repair Courtesy Rental Type 100LL JetA JetA+ MOGAS 8087
 
Add another FBO Facility Photos Catering Weather Repair Courtesy Rental Type 100LL JetA JetA+ MOGAS 8087
Services Transportation Aviation Fuel Prices: Prices include tax
There are no FBO's currently reporting fuel at HFF. List your FBO now


model-print
model-print
model-print
model-print